Airfield :
LOGIN :

Register | Disclaimer

   EN    FR    IT 

 










Legend :    VFR   Marginal VFR   IFR   Intensive IFR   Very Intensive IFR
Visi :
Ceiling :
>= 8 km
>= 3000ft
5 to 8 km
1000 to 3000 ft
1500m to 5 km
500 to 1000 ft
800 to 1500m
200 to 500 ft
< 800m
< 200 ft
Symbols :   Thunderstorms  Fog  Heavy snow  Heavy precipitations  Wind > 20 kt
SIGMETs :     Misc.  Thunderstorms  Icing  Turbulence  Mountain Waves  Volcanic Ashes







- Airport Elevation : 1273 ft
- IATA code : LJU


LJLJ - Ljubljana

CURRENT METAR :
  • 200430Z 29002KT CAVOK 14/14 Q1018 NOSIG

EXPIRED METARs :
  • 200400Z 30002KT CAVOK 13/12 Q1018 NOSIG
  • 200330Z 21002KT 9999 MIFG NSC 13/13 Q1018 NOSIG
  • 200300Z VRB01KT CAVOK 13/13 Q1018 NOSIG
  • 200230Z VRB01KT CAVOK 13/13 Q1018 NOSIG
  • 200200Z VRB01KT CAVOK 13/13 Q1018 NOSIG

TAF TAF LJLJ
Valid from the 20 at 03:00 until the 21 at 03:00 UTC


200200Z 2003/2103 29004KT CAVOK
BECMG 2007/2009 10005KT FEW060
BECMG 2010/2012 27005KT
TEMPO 2012/2019 27010KT
No reported NOTAMs for that airfield.



MET'MAP, your aeronautical weather chart ! - Copyright ORBIFLY December 2007 - Disclaimer

ORBIFLY MET'MAP TEAM :

Programming & Development : Alexandra Zaïnal
Concept & Development : Baudouin d'Aumeries
Co-Development & Prog : Marc-Olivier Méhu
Technical & hardware support : Manuel Goepfert

Contact : metmap@orbifly.com




SOURCES & CREDITS :

   NOAA